Marida Magnolia — V7PL4 — position and weather

sailwx.info

Track history (hours):
 
Tides and Currents Weather Stations Pressure Air Temp Water Temp Dewpoint Dewpoint Depression Visibility Wind Speed Wind Dir Waves Ship Positions

Marida Magnolia

Last reported at 2017-Nov-17 17:58 UTC. Time now 2017-Nov-21 04:12 UTC.
Position N 05°01' W 000°11'.

Length 129 m; draft 5.9 m.

Type: Ship. MMSI: 538007089.

Date/timePositionNaut miles runAvg speedWind from/ knotsBaromVisibWave heightAir tempDewpointWater temp
2017-Nov-17 17:58N 05°01' W 000°11'4 9.3
2017-Nov-17 17:30N 05°03' W 000°07'5 9.5
2017-Nov-17 17:00N 05°05' W 000°02'6 9.6
2017-Nov-17 16:22N 05°07' E 000°03'4 9.6
2017-Nov-17 16:00N 05°08' E 000°06'5 9.5
2017-Nov-17 15:30N 05°10' E 000°11'5 9.8
2017-Nov-17 15:00N 05°12' E 000°15'5 9.8
2017-Nov-17 14:30N 05°14' E 000°20'5 9.9
2017-Nov-17 14:00N 05°16' E 000°25'510.0
2017-Nov-17 13:29N 05°18' E 000°29'2 0.0
2017-Nov-15 09:54N 05°19' E 000°31'612.4
2017-Nov-15 09:24N 05°16' E 000°25'512.2
2017-Nov-15 09:00N 05°14' E 000°21'612.0
2017-Nov-15 08:31N 05°12' E 000°15'912.0
2017-Nov-15 07:47N 05°09' E 000°07'311.9
2017-Nov-15 07:31N 05°08' E 000°04'612.0
2017-Nov-15 07:01N 05°05' W 000°01'  
2017-Nov-10 22:08N 09°37' W 014°36'  
2017-Nov-08 13:31N 08°40' W 014°12'011.1
2017-Nov-08 13:31N 08°40' W 014°12'510.6
2017-Nov-08 13:00N 08°35' W 014°10'  
Track history (hours):
 
Tides and Currents Weather Stations Pressure Air Temp Water Temp Dewpoint Dewpoint Depression Visibility Wind Speed Wind Dir Waves Ship Positions

Marida Magnolia

Last reported at 2017-Nov-17 17:58 UTC. Time now 2017-Nov-21 04:12 UTC.
Position N 05°01' W 000°11'.

Length 129 m; draft 5.9 m.

Type: Ship. MMSI: 538007089.

Date/timePositionNaut miles runAvg speedWind from/ knotsBaromVisibWave heightAir tempDewpointWater temp
2017-Nov-17 17:58N 05°01' W 000°11'4 9.3
2017-Nov-17 17:30N 05°03' W 000°07'5 9.5
2017-Nov-17 17:00N 05°05' W 000°02'6 9.6
2017-Nov-17 16:22N 05°07' E 000°03'4 9.6
2017-Nov-17 16:00N 05°08' E 000°06'5 9.5
2017-Nov-17 15:30N 05°10' E 000°11'5 9.8
2017-Nov-17 15:00N 05°12' E 000°15'5 9.8
2017-Nov-17 14:30N 05°14' E 000°20'5 9.9
2017-Nov-17 14:00N 05°16' E 000°25'510.0
2017-Nov-17 13:29N 05°18' E 000°29'2 0.0
2017-Nov-15 09:54N 05°19' E 000°31'612.4
2017-Nov-15 09:24N 05°16' E 000°25'512.2
2017-Nov-15 09:00N 05°14' E 000°21'612.0
2017-Nov-15 08:31N 05°12' E 000°15'912.0
2017-Nov-15 07:47N 05°09' E 000°07'311.9
2017-Nov-15 07:31N 05°08' E 000°04'612.0
2017-Nov-15 07:01N 05°05' W 000°01'  
2017-Nov-10 22:08N 09°37' W 014°36'  
2017-Nov-08 13:31N 08°40' W 014°12'011.1
2017-Nov-08 13:31N 08°40' W 014°12'510.6
2017-Nov-08 13:00N 08°35' W 014°10'  

Dump ship's entire track history